• Join FlightAware (Why Join?)
  • Login
  • US Flag 
06:21PM EDT


 

Airport Tracker/Info


-or-


 

Live Flight TrackerFlight Track Log ✈ UPS1337 ✈ 07-Apr-2014 ✈ KPIE - KSDF

Flight Track Log - Related Links

Times and Time Zones

All times are in EDT time to prevent confusion due to time zone crossing. See the UPS1337 flight status page for this flight to view local times or setup timezone preferences in your user account.

Time Position Orientation Groundspeed Altitude Reporting Facility
EDT Latitude Longitude Course Direction KTS MPH feet Rate Location/Type
09:42PM 27.9000 -82.6833 180° South 158 182 800  Level Tampa TRACON
09:43PM 27.8500 -82.6833 180° South 213 245 1,900 2,520 Climbing Tampa TRACON
09:44PM 27.8000 -82.7000 196° South 234 269 5,400 3,120 Climbing Tampa TRACON
09:46PM 27.8683 -82.7753 316° Northwest 268 308 10,100 2,460 Climbing Jacksonville Center
09:47PM 27.9683 -82.7797 358° North 289 333 11,800 2,100 Climbing Jacksonville Center
09:48PM 28.0831 -82.7844 358° North 351 404 14,300 2,520 Climbing Jacksonville Center
09:49PM 28.1978 -82.7889 358° North 393 452 16,900 2,580 Climbing Jacksonville Center
09:50PM 28.3147 -82.8194 347° North 414 476 19,500 2,400 Climbing Jacksonville Center
09:51PM 28.4317 -82.8453 349° North 426 490 21,700 2,040 Climbing Jacksonville Center
09:52PM 28.5569 -82.8783 347° North 439 505 23,600 1,980 Climbing Jacksonville Center
09:53PM 28.6758 -82.9281 340° North 452 520 25,700 1,560 Climbing Jacksonville Center
09:54PM 28.7969 -82.9708 343° North 452 520 26,800 1,560 Climbing Jacksonville Center
09:55PM 28.9117 -83.0253 337° Northwest 447 514 28,900 1,800 Climbing Jacksonville Center
09:56PM 29.0117 -83.1014 326° Northwest 441 507 30,500 1,380 Climbing Jacksonville Center
09:57PM 29.1117 -83.1803 325° Northwest 436 502 31,700 1,140 Climbing Jacksonville Center
09:58PM 29.2097 -83.2614 324° Northwest 436 502 32,800 1,080 Climbing Jacksonville Center
09:59PM 29.3094 -83.3428 325° Northwest 436 502 33,900 600 Climbing Jacksonville Center
10:00PM 29.4075 -83.4217 325° Northwest 436 502 34,000  Climbing Jacksonville Center
10:01PM 29.5092 -83.5058 324° Northwest 436 502 34,000  Level Jacksonville Center
10:07PM 30.1388 -83.9928 352° North 511 588 34,000  Level FlightAware ADS-B (KTLH)
10:07PM 30.2137 -83.9990 355° North 519 597 34,000  Level FlightAware ADS-B (KTLH)
10:08PM 30.2673 -84.0059 353° North 520 598 34,000  Level FlightAware ADS-B (KTLH)
10:08PM 30.3807 -84.0210 354° North 520 598 34,000  Level FlightAware ADS-B (KTLH)
10:09PM 30.4417 -84.0285 354° North 523 602 34,000  Level FlightAware ADS-B (KTLH)
10:09PM 30.5166 -84.0377 354° North 524 603 34,000  Level FlightAware ADS-B (KTLH)
10:10PM 30.5988 -84.0476 354° North 524 603 34,000  Level FlightAware ADS-B (KTLH)
10:10PM 30.6954 -84.0593 354° North 525 604 34,000  Level FlightAware ADS-B (KTLH)
10:11PM 30.8341 -84.0763 354° North 524 603 34,000  Level FlightAware ADS-B (KTLH)
10:13PM 31.0186 -84.1022 354° North 517 595 34,000  Level Jacksonville Center
10:14PM 31.1647 -84.1186 355° North 517 595 34,000  Level Jacksonville Center
10:15PM 31.4000 -84.1508 353° North 529 609 34,000  Level Atlanta Center
10:16PM 31.5442 -84.1681 354° North 529 609 34,000  Level Atlanta Center
10:17PM 31.6881 -84.1853 354° North 529 609 34,000  Level Atlanta Center
10:18PM 31.8069 -84.2003 354° North 529 609 34,000  Level Atlanta Center
10:19PM 31.9656 -84.2200 354° North 524 603 34,000  Level Atlanta Center
10:20PM 32.1117 -84.2400 353° North 519 597 34,000  Level Atlanta Center
10:21PM 32.2578 -84.2575 354° North 519 597 34,000  Level Atlanta Center
10:22PM 32.4017 -84.2725 355° North 519 597 34,000  Level Atlanta Center
10:23PM 32.5478 -84.2925 353° North 519 597 34,000  Level Atlanta Center
10:24PM 32.6897 -84.3078 355° North 519 597 34,000  Level Atlanta Center
10:25PM 32.8317 -84.3306 352° North 519 597 34,000  Level Atlanta Center
10:26PM 32.9736 -84.3483 354° North 519 597 34,000  Level Atlanta Center
10:27PM 33.1197 -84.3661 354° North 519 597 34,000  Level Atlanta Center
10:33PM 33.9962 -84.4679 354° North 517 595 34,000  Level FlightAware ADS-B (KDZJ)
10:33PM 34.0908 -84.4798 354° North 520 598 34,000  Level FlightAware ADS-B (KDZJ)
10:34PM 34.1897 -84.4924 354° North 517 595 34,000  Level FlightAware ADS-B (KDZJ)
10:35PM 34.2853 -84.5045 354° North 520 598 34,000  Level FlightAware ADS-B (KDZJ)
10:35PM 34.3841 -84.5170 354° North 519 597 34,000  Level FlightAware ADS-B (KDZJ)
10:36PM 34.4794 -84.5292 354° North 518 596 34,000  Level FlightAware ADS-B (KDZJ)
10:37PM 34.5762 -84.5416 354° North 520 598 34,000  Level FlightAware ADS-B (KDZJ)
10:37PM 34.6735 -84.5540 354° North 521 600 34,000  Level FlightAware ADS-B (KDZJ)
10:38PM 34.7701 -84.5663 354° North 520 598 34,000  Level FlightAware ADS-B (KDZJ)
10:39PM 34.8685 -84.5790 354° North 530 610 34,000  Level FlightAware ADS-B (KDZJ)
10:39PM 34.9655 -84.5914 354° North 519 597 34,000  Level FlightAware ADS-B (KDZJ)
10:40PM 35.0638 -84.6040 354° North 515 593 34,000  Level FlightAware ADS-B (KDZJ)
10:41PM 35.1589 -84.6164 354° North 518 596 34,000  Level FlightAware ADS-B (KDZJ)
10:41PM 35.2415 -84.6272 354° North 518 596 34,000  Level FlightAware ADS-B (KDZJ)
10:42PM 35.3078 -84.6369 354° North 520 598 34,000  Level Atlanta Center
10:43PM 35.4517 -84.6558 354° North 520 598 34,000  Level Atlanta Center
10:44PM 35.5997 -84.6772 353° North 520 598 34,000  Level Atlanta Center
10:45PM 35.7417 -84.6936 355° North 520 598 34,000 -180 Level Atlanta Center
10:47PM 36.0200 -84.7319 354° North 519 597 33,600 -600 Descending Indianapolis Center
10:48PM 36.1606 -84.7517 354° North 516 594 32,300 -1,740 Descending Indianapolis Center
10:49PM 36.3272 -84.7747 354° North 503 579 30,100 -1,260 Descending Indianapolis Center
10:51PM 36.4672 -84.7933 354° North 504 580 29,800 -720 Descending Indianapolis Center
10:52PM 36.6081 -84.8117 354° North 507 583 28,700 -1,740 Descending Indianapolis Center
10:53PM 36.7447 -84.8294 354° North 491 565 26,400 -2,520 Descending Indianapolis Center
10:54PM 36.8775 -84.8469 354° North 478 550 23,700 -2,520 Descending Indianapolis Center
10:55PM 37.0050 -84.8642 354° North 454 522 21,300 -2,220 Descending Indianapolis Center
10:56PM 37.1167 -84.8786 354° North 428 493 19,300 -2,760 Descending Indianapolis Center
10:57PM 37.2531 -84.8969 354° North 421 484 15,700 -3,000 Descending Indianapolis Center
10:58PM 37.3656 -84.9119 354° North 402 463 13,300 -1,920 Descending Indianapolis Center
10:59PM 37.4736 -84.9264 354° North 389 448 11,800 -1,260 Descending Indianapolis Center
11:00PM 37.5797 -84.9408 354° North 384 442 10,800 -840 Descending Indianapolis Center
11:01PM 37.6767 -84.9808 342° North 352 405 10,100 -360 Descending Indianapolis Center
11:02PM 37.7156 -85.0794 297° West 319 367 10,100  Level Indianapolis Center
11:03PM 37.7483 -85.1767 293° West 288 331 10,100 -900 Level Indianapolis Center
11:04PM 37.7758 -85.2608 292° West 253 291 8,300 -1,980 Descending Indianapolis Center
11:05PM 37.8017 -85.3372 293° West 237 273 6,100 -1,680 Descending Indianapolis Center
11:06PM 37.8261 -85.4094 293° West 236 272 4,900 -840 Descending Indianapolis Center
11:09PM 37.9167 -85.5833 314° West 172 198 3,000 -420 Descending Louisville TRACON
11:11PM 38.0000 -85.6667 335° Northwest 157 181 3,000  Level Louisville TRACON
11:12PM 38.0317 -85.6981 322° Northwest 171 197 3,000 -120 Level Indianapolis Center
11:13PM 38.0819 -85.7078 351° North 184 212 2,800 -240 Descending Indianapolis Center
11:15PM 38.1741 -85.7365 211° Southwest  Level Estimated
11:22PM 38.1741 -85.7365 208° Southwest  Level Estimated
11:23PM 38.1741 -85.7365 208° Southwest  Level Estimated